createdAt,value
2022-10-22T00:02:27.680Z,0.63
2022-10-22T00:04:57.072Z,0.45
2022-10-22T00:07:24.720Z,0.30
2022-10-22T00:09:51.592Z,0.73
2022-10-22T00:12:18.685Z,0.52
2022-10-22T00:14:45.873Z,0.30
2022-10-22T00:17:12.588Z,0.77
2022-10-22T00:19:40.699Z,0.40
2022-10-22T00:22:07.758Z,0.30
2022-10-22T00:24:35.631Z,0.32
2022-10-22T00:27:03.156Z,0.28
2022-10-22T00:29:31.316Z,0.47
2022-10-22T00:31:58.335Z,0.47
2022-10-22T00:34:25.794Z,0.60
2022-10-22T00:36:54.316Z,0.43
2022-10-22T00:39:23.831Z,0.38
2022-10-22T00:41:52.185Z,0.32
2022-10-22T00:44:56.776Z,0.32
2022-10-22T00:47:25.319Z,0.32
2022-10-22T00:49:53.821Z,0.70
2022-10-22T00:52:22.937Z,0.32
2022-10-22T00:54:50.917Z,0.40
2022-10-22T00:57:19.611Z,0.43
2022-10-22T00:59:47.064Z,0.32
2022-10-22T01:02:14.135Z,0.60
2022-10-22T01:04:40.791Z,0.50
2022-10-22T01:07:07.513Z,0.40
2022-10-22T01:09:50.135Z,0.80
2022-10-22T01:12:23.207Z,0.40
2022-10-22T01:15:07.765Z,0.65
2022-10-22T01:17:39.712Z,0.40
2022-10-22T01:20:18.427Z,0.55
2022-10-22T01:22:59.206Z,0.52
2022-10-22T01:25:34.158Z,0.52
2022-10-22T01:28:09.484Z,0.75
2022-10-22T01:30:39.736Z,0.28
2022-10-22T01:33:10.374Z,0.32
2022-10-22T01:35:42.883Z,0.52
2022-10-22T01:38:13.007Z,0.40
2022-10-22T01:40:41.636Z,0.47
2022-10-22T01:43:10.325Z,0.52
2022-10-22T01:45:42.439Z,0.75
2022-10-22T01:48:22.091Z,0.65
2022-10-22T01:51:02.096Z,0.40
2022-10-22T01:53:34.386Z,0.43
2022-10-22T01:56:29.577Z,0.35
2022-10-22T01:59:03.658Z,0.60
2022-10-22T02:01:41.367Z,0.52
2022-10-22T02:04:15.715Z,0.30
2022-10-22T02:06:44.484Z,0.70
2022-10-22T02:09:14.764Z,0.50
2022-10-22T02:11:42.853Z,0.22
2022-10-22T02:14:12.634Z,0.60
2022-10-22T02:16:43.873Z,0.50
2022-10-22T02:19:16.925Z,0.38
2022-10-22T02:21:44.583Z,0.43
2022-10-22T02:24:11.301Z,0.57
2022-10-22T02:26:41.848Z,1.00
2022-10-22T02:29:14.352Z,0.32
2022-10-22T02:31:46.127Z,0.43
2022-10-22T02:34:19.349Z,0.45
2022-10-22T02:36:49.712Z,0.55
2022-10-22T02:39:19.121Z,0.50
2022-10-22T02:41:45.747Z,0.30
2022-10-22T02:44:12.561Z,0.40
2022-10-22T02:46:40.526Z,0.22
2022-10-22T02:49:08.583Z,0.22
2022-10-22T02:51:35.351Z,0.30
2022-10-22T02:54:02.027Z,0.30
2022-10-22T02:56:29.077Z,0.32
2022-10-22T02:58:55.711Z,0.32
2022-10-22T03:01:22.692Z,0.10
2022-10-22T03:03:49.505Z,0.43
2022-10-22T03:06:18.040Z,0.40
2022-10-22T03:08:44.764Z,0.17
2022-10-22T03:11:11.525Z,0.22
2022-10-22T03:13:38.187Z,0.22
2022-10-22T03:16:05.543Z,0.22
2022-10-22T03:18:32.283Z,0.13
2022-10-22T03:21:07.794Z,0.20
2022-10-22T03:26:03.679Z,0.40
2022-10-22T03:28:30.402Z,0.40
2022-10-22T03:30:57.017Z,0.30
2022-10-22T03:33:23.734Z,0.40
2022-10-22T03:35:50.486Z,0.25
2022-10-22T03:38:17.342Z,0.35
2022-10-22T03:40:46.179Z,0.13
2022-10-22T03:43:13.071Z,0.22
2022-10-22T03:45:39.716Z,0.25
2022-10-22T03:48:06.498Z,0.25
2022-10-22T03:50:33.259Z,0.30
2022-10-22T03:52:59.975Z,0.35
2022-10-22T03:55:26.901Z,0.22
2022-10-22T03:57:54.897Z,0.22
2022-10-22T04:00:21.698Z,0.22
2022-10-22T04:02:48.311Z,0.60
2022-10-22T04:07:46.567Z,0.13
2022-10-22T04:10:13.261Z,0.30
2022-10-22T04:12:39.918Z,0.22
2022-10-22T04:15:09.586Z,0.30
2022-10-22T04:17:37.125Z,0.43
2022-10-22T04:20:05.126Z,0.22
2022-10-22T04:22:33.521Z,0.30
2022-10-22T04:25:00.317Z,0.38
2022-10-22T04:27:29.887Z,0.40
2022-10-22T04:29:56.639Z,0.40
2022-10-22T04:32:24.767Z,0.35
2022-10-22T04:34:51.391Z,0.45
2022-10-22T04:37:18.089Z,0.30
2022-10-22T04:39:44.831Z,0.22
2022-10-22T04:42:12.563Z,0.22
2022-10-22T04:44:39.277Z,0.22
2022-10-22T04:47:06.000Z,0.47
2022-10-22T04:49:34.086Z,0.13
2022-10-22T04:52:00.749Z,0.20
2022-10-22T04:54:30.512Z,0.22
2022-10-22T04:56:59.907Z,0.13
2022-10-22T04:59:26.656Z,0.22
2022-10-22T05:01:53.331Z,0.25
2022-10-22T05:04:19.975Z,0.30
2022-10-22T05:06:48.062Z,0.73
2022-10-22T05:09:17.264Z,0.20
2022-10-22T05:11:46.248Z,0.30
2022-10-22T05:14:13.266Z,0.13
2022-10-22T05:16:40.084Z,0.32
2022-10-22T05:19:07.739Z,0.35
2022-10-22T05:21:34.941Z,0.22
2022-10-22T05:24:04.005Z,0.20
2022-10-22T05:28:57.381Z,0.32
2022-10-22T05:31:24.184Z,0.77
2022-10-22T05:33:50.943Z,0.13
2022-10-22T05:36:19.450Z,0.32
2022-10-22T05:38:46.418Z,0.13
2022-10-22T05:41:16.280Z,0.47
2022-10-22T05:43:43.328Z,0.20
2022-10-22T05:46:11.835Z,0.40
2022-10-22T05:48:39.217Z,0.75
2022-10-22T05:51:07.581Z,0.43
2022-10-22T05:53:35.944Z,0.30
2022-10-22T05:56:04.455Z,0.32
2022-10-22T05:58:32.941Z,0.50
2022-10-22T06:01:03.631Z,0.32
2022-10-22T06:03:31.783Z,0.22
2022-10-22T06:06:01.637Z,0.32
2022-10-22T06:08:28.926Z,0.52
2022-10-22T06:10:55.644Z,0.45
2022-10-22T06:13:22.905Z,0.52
2022-10-22T06:15:53.446Z,0.47
2022-10-22T06:18:20.423Z,0.63
2022-10-22T06:20:47.649Z,0.85
2022-10-22T06:23:15.255Z,0.45
2022-10-22T06:25:42.005Z,0.32
2022-10-22T06:28:08.685Z,0.20
2022-10-22T06:30:37.261Z,0.40
2022-10-22T06:33:05.403Z,0.50
2022-10-22T06:35:33.311Z,0.22
2022-10-22T06:37:59.998Z,0.32
2022-10-22T06:40:26.789Z,0.22
2022-10-22T06:42:53.493Z,0.35
2022-10-22T06:45:20.285Z,0.25
2022-10-22T06:47:47.657Z,0.50
2022-10-22T06:50:15.933Z,0.43
2022-10-22T06:52:42.597Z,0.35
2022-10-22T06:55:10.297Z,0.60
2022-10-22T06:57:38.207Z,0.45
2022-10-22T07:00:07.084Z,0.28
2022-10-22T07:02:33.768Z,0.43
2022-10-22T07:05:00.557Z,0.40
2022-10-22T07:07:28.679Z,0.10
2022-10-22T07:09:55.337Z,0.38
2022-10-22T07:12:22.212Z,0.22
2022-10-22T07:14:49.052Z,0.32
2022-10-22T07:17:15.785Z,0.30
2022-10-22T07:19:42.482Z,0.30
2022-10-22T07:25:11.335Z,0.32
2022-10-22T07:27:46.034Z,0.40
2022-10-22T07:30:15.147Z,0.52
2022-10-22T07:44:02.239Z,0.45
2022-10-22T07:49:10.313Z,0.45
2022-10-22T07:54:29.645Z,0.73
2022-10-22T07:56:57.552Z,1.13
2022-10-22T07:59:35.086Z,0.95
2022-10-22T08:02:01.997Z,1.27
2022-10-22T08:04:32.769Z,0.55
2022-10-22T08:07:01.035Z,0.63
2022-10-22T08:09:28.106Z,0.50
2022-10-22T08:11:54.980Z,0.38
2022-10-22T08:14:22.285Z,0.40
2022-10-22T08:16:50.584Z,0.80
2022-10-22T08:19:21.287Z,0.93
2022-10-22T08:21:48.611Z,2.53
2022-10-22T08:24:15.475Z,2.78
2022-10-22T08:26:42.738Z,2.90
2022-10-22T08:29:09.842Z,0.70
2022-10-22T08:31:37.221Z,0.77
2022-10-22T08:34:07.440Z,0.77
2022-10-22T08:36:36.276Z,1.88
2022-10-22T08:39:03.209Z,0.98
2022-10-22T08:47:40.560Z,2.03
2022-10-22T08:50:12.010Z,2.17
2022-10-22T08:52:45.781Z,1.90
2022-10-22T08:55:14.407Z,2.00
2022-10-22T08:57:52.302Z,1.50
2022-10-22T09:00:22.004Z,0.77
2022-10-22T09:03:04.091Z,0.60
2022-10-22T09:05:44.200Z,0.73
2022-10-22T09:08:13.846Z,1.63
2022-10-22T09:10:46.362Z,2.20
2022-10-22T09:16:19.298Z,0.52
2022-10-22T09:18:58.945Z,0.82
2022-10-22T09:21:33.222Z,0.57
2022-10-22T09:24:05.577Z,0.65
2022-10-22T09:26:36.237Z,2.25
2022-10-22T09:29:03.844Z,0.55
2022-10-22T09:31:32.061Z,0.43
2022-10-22T09:34:05.766Z,0.68
2022-10-22T09:36:34.496Z,0.43
2022-10-22T09:39:01.610Z,0.25
2022-10-22T09:41:30.137Z,0.30
2022-10-22T09:43:57.621Z,0.43
2022-10-22T09:46:28.003Z,0.25
2022-10-22T09:49:01.929Z,0.25
2022-10-22T09:51:46.305Z,0.43
2022-10-22T09:54:16.810Z,0.32
2022-10-22T09:56:52.030Z,0.22
2022-10-22T09:59:24.574Z,0.68
2022-10-22T10:02:08.373Z,0.65
2022-10-22T10:04:48.207Z,0.25
2022-10-22T10:07:18.499Z,0.60
2022-10-22T10:09:45.706Z,1.27
2022-10-22T10:12:24.763Z,0.22
2022-10-22T10:15:01.623Z,0.40
2022-10-22T10:17:36.402Z,0.22
2022-10-22T10:20:16.594Z,0.25
2022-10-22T10:22:55.034Z,0.20
2022-10-22T10:25:42.109Z,0.17
2022-10-22T10:28:27.862Z,0.22
2022-10-22T10:31:04.903Z,0.63
2022-10-22T10:33:42.628Z,0.45
2022-10-22T10:36:17.214Z,0.32
2022-10-22T10:38:57.493Z,0.25
2022-10-22T10:41:35.141Z,0.25
2022-10-22T10:44:18.245Z,0.30
2022-10-22T10:46:50.012Z,0.30
2022-10-22T10:49:20.465Z,0.30
2022-10-22T10:51:57.086Z,0.10
2022-10-22T10:54:41.228Z,0.35
2022-10-22T10:57:18.176Z,0.43
2022-10-22T11:00:02.739Z,0.30
2022-10-22T11:02:49.216Z,0.55
2022-10-22T11:05:30.680Z,0.50
2022-10-22T11:08:01.599Z,1.20
2022-10-22T11:10:34.406Z,1.35
2022-10-22T11:13:07.980Z,0.32
2022-10-22T11:15:37.909Z,0.50
2022-10-22T11:18:16.807Z,0.20
2022-10-22T11:21:04.608Z,0.13
2022-10-22T11:23:36.646Z,0.13
2022-10-22T11:29:01.730Z,0.38
2022-10-22T11:31:31.765Z,0.20
2022-10-22T11:34:28.520Z,0.50
2022-10-22T11:36:54.932Z,0.10
2022-10-22T11:39:31.990Z,0.32
2022-10-22T11:41:59.334Z,0.20
2022-10-22T11:44:30.359Z,0.20
2022-10-22T11:47:00.052Z,0.30
2022-10-22T11:52:41.777Z,0.35
2022-10-22T11:55:30.695Z,0.40
2022-10-22T11:58:03.777Z,0.40
2022-10-22T12:00:48.161Z,0.10
2022-10-22T12:03:19.658Z,0.30
2022-10-22T12:05:46.811Z,0.22
2022-10-22T12:11:28.004Z,0.35
2022-10-22T12:17:35.604Z,0.52
2022-10-22T12:22:55.756Z,0.20
2022-10-22T12:33:44.013Z,0.28
2022-10-22T12:36:17.029Z,0.22
2022-10-22T12:38:47.841Z,0.13
2022-10-22T12:41:15.490Z,0.25
2022-10-22T12:46:24.365Z,0.38
2022-10-22T12:48:53.695Z,0.17
2022-10-22T12:53:57.414Z,0.20
2022-10-22T12:56:47.014Z,0.22
2022-10-22T13:11:11.229Z,0.52
2022-10-22T13:17:21.804Z,0.20
2022-10-22T13:38:54.044Z,0.43
2022-10-22T13:53:34.765Z,0.20
2022-10-22T13:56:11.851Z,0.22
2022-10-22T13:58:38.913Z,0.13
2022-10-22T14:01:10.497Z,0.20
2022-10-22T14:03:38.251Z,0.20
2022-10-22T14:06:13.093Z,0.17
2022-10-22T14:08:40.339Z,0.17
2022-10-22T14:11:10.075Z,0.20
2022-10-22T14:13:42.521Z,0.73
2022-10-22T14:16:16.597Z,0.45
2022-10-22T14:18:43.922Z,0.30
2022-10-22T14:21:14.321Z,0.20
2022-10-22T14:23:45.025Z,0.20
2022-10-22T14:26:21.916Z,0.30
2022-10-22T14:29:08.689Z,0.17
2022-10-22T14:31:37.263Z,0.30
2022-10-22T14:36:48.506Z,0.45
2022-10-22T14:39:22.785Z,0.20
2022-10-22T14:41:52.020Z,0.22
2022-10-22T14:44:19.104Z,0.50
2022-10-22T14:46:46.976Z,0.43
2022-10-22T14:49:13.845Z,0.35
2022-10-22T14:51:42.536Z,0.32
2022-10-22T14:54:09.328Z,0.25
2022-10-22T14:56:47.073Z,0.20
2022-10-22T14:59:15.198Z,0.15
2022-10-22T15:01:43.098Z,0.43
2022-10-22T15:04:10.593Z,0.45
2022-10-22T15:06:37.958Z,0.50
2022-10-22T15:11:47.774Z,0.55
2022-10-22T15:17:10.102Z,0.20
2022-10-22T15:19:36.844Z,0.25
2022-10-22T15:22:08.253Z,0.20
2022-10-22T15:24:35.181Z,0.20
2022-10-22T15:27:03.630Z,0.20
2022-10-22T15:29:30.571Z,0.30
2022-10-22T15:31:59.302Z,0.40
2022-10-22T15:34:29.538Z,0.30
2022-10-22T15:36:58.519Z,0.32
2022-10-22T15:39:25.961Z,0.65
2022-10-22T15:41:55.652Z,0.32
2022-10-22T15:44:24.498Z,0.28
2022-10-22T15:49:19.224Z,0.17
2022-10-22T15:51:50.667Z,0.20
2022-10-22T15:54:19.783Z,0.38
2022-10-22T15:56:46.984Z,1.30
2022-10-22T15:59:15.950Z,0.30
2022-10-22T16:04:25.249Z,0.20
2022-10-22T16:06:55.547Z,0.20
2022-10-22T16:09:28.749Z,0.55
2022-10-22T16:11:55.856Z,0.32
2022-10-22T16:14:24.181Z,0.30
2022-10-22T16:16:53.310Z,0.20
2022-10-22T16:19:22.278Z,0.70
2022-10-22T16:21:50.849Z,0.73
2022-10-22T16:24:19.525Z,0.60
2022-10-22T16:26:46.519Z,1.30
2022-10-22T16:29:13.534Z,1.05
2022-10-22T16:31:42.756Z,0.30
2022-10-22T16:34:09.948Z,0.45
2022-10-22T16:36:37.253Z,1.80
2022-10-22T16:39:05.043Z,4.18
2022-10-22T16:41:35.055Z,2.63
2022-10-22T16:44:03.618Z,5.43
2022-10-22T16:46:31.224Z,6.53
2022-10-22T16:48:58.873Z,3.42
2022-10-22T16:51:27.257Z,4.32
2022-10-22T16:53:55.207Z,6.78
2022-10-22T16:56:22.193Z,5.70
2022-10-22T16:58:52.450Z,4.22
2022-10-22T17:01:20.738Z,1.77
2022-10-22T17:03:47.472Z,1.38
2022-10-22T17:06:14.792Z,1.80
2022-10-22T17:08:42.429Z,1.00
2022-10-22T17:11:10.989Z,0.82
2022-10-22T17:13:38.085Z,0.95
2022-10-22T17:16:08.883Z,0.95
2022-10-22T17:18:37.781Z,1.15
2022-10-22T17:21:04.707Z,0.82
2022-10-22T17:23:31.543Z,1.00
2022-10-22T17:25:59.780Z,1.08
2022-10-22T17:28:27.214Z,1.55
2022-10-22T17:31:02.584Z,1.30
2022-10-22T17:33:31.508Z,1.50
2022-10-22T17:35:59.182Z,1.40
2022-10-22T17:38:26.065Z,1.48
2022-10-22T17:40:52.825Z,1.67
2022-10-22T17:43:19.707Z,1.55
2022-10-22T17:45:46.389Z,1.23
2022-10-22T17:48:13.053Z,1.77
2022-10-22T17:50:42.776Z,1.42
2022-10-22T17:53:11.206Z,1.67
2022-10-22T17:55:37.809Z,1.38
2022-10-22T17:58:04.541Z,1.70
2022-10-22T18:00:33.283Z,1.35
2022-10-22T18:03:01.148Z,0.95
2022-10-22T18:05:28.101Z,1.48
2022-10-22T18:07:57.410Z,1.95
2022-10-22T18:10:24.608Z,2.83
2022-10-22T18:12:51.250Z,1.73
2022-10-22T18:15:17.935Z,1.38
2022-10-22T18:17:46.960Z,1.25
2022-10-22T18:22:42.159Z,1.42
2022-10-22T18:25:11.776Z,1.60
2022-10-22T18:27:38.965Z,1.88
2022-10-22T18:30:07.210Z,2.58
2022-10-22T18:32:34.106Z,2.05
2022-10-22T18:35:00.849Z,2.30
2022-10-22T18:37:27.705Z,2.10
2022-10-22T18:39:54.334Z,2.33
2022-10-22T18:42:22.401Z,2.20
2022-10-22T18:44:50.838Z,2.88
2022-10-22T18:47:17.491Z,3.13
2022-10-22T18:49:44.291Z,4.28
2022-10-22T18:52:11.602Z,6.30
2022-10-22T18:54:38.374Z,3.50
2022-10-22T18:57:05.212Z,3.38
2022-10-22T18:59:33.302Z,4.22
2022-10-22T19:02:00.334Z,4.55
2022-10-22T19:04:36.537Z,5.30
2022-10-22T19:07:03.243Z,4.30
2022-10-22T19:09:30.105Z,3.60
2022-10-22T19:11:56.802Z,4.40
2022-10-22T19:14:23.468Z,3.67
2022-10-22T19:16:51.849Z,3.00
2022-10-22T19:19:21.187Z,2.90
2022-10-22T19:21:48.692Z,3.45
2022-10-22T19:24:16.526Z,1.88
2022-10-22T19:26:43.645Z,1.95
2022-10-22T19:29:11.011Z,2.30
2022-10-22T19:31:38.144Z,2.50
2022-10-22T19:34:06.776Z,2.28
2022-10-22T19:36:34.438Z,1.95
2022-10-22T19:39:02.336Z,1.80
2022-10-22T19:41:31.381Z,1.90
2022-10-22T19:43:59.397Z,1.50
2022-10-22T19:46:28.253Z,1.17
2022-10-22T19:48:57.265Z,1.35
2022-10-22T19:51:27.524Z,1.08
2022-10-22T19:53:58.820Z,1.70
2022-10-22T19:56:25.614Z,0.90
2022-10-22T19:58:52.868Z,1.33
2022-10-22T20:01:20.236Z,1.27
2022-10-22T20:03:47.183Z,1.23
2022-10-22T20:06:15.025Z,0.55
2022-10-22T20:08:43.985Z,0.52
2022-10-22T20:16:11.897Z,0.77
2022-10-22T20:18:38.986Z,0.80
2022-10-22T20:21:06.794Z,0.63
2022-10-22T20:23:34.199Z,0.45
2022-10-22T20:26:02.457Z,0.45
2022-10-22T20:28:29.119Z,0.47
2022-10-22T20:30:56.016Z,0.60
2022-10-22T20:33:22.892Z,0.70
2022-10-22T20:35:58.305Z,1.30
2022-10-22T20:38:25.213Z,1.42
2022-10-22T20:40:59.891Z,0.93
2022-10-22T20:43:28.029Z,1.42
2022-10-22T20:45:54.946Z,1.60
2022-10-22T20:48:22.944Z,1.98
2022-10-22T20:50:49.679Z,1.92
2022-10-22T20:53:16.998Z,1.33
2022-10-22T20:55:43.821Z,1.85
2022-10-22T20:58:10.709Z,1.48
2022-10-22T21:00:39.869Z,1.80
2022-10-22T21:05:34.666Z,1.75
2022-10-22T21:08:02.384Z,1.27
2022-10-22T21:10:32.468Z,1.10
2022-10-22T21:13:00.307Z,1.02
2022-10-22T21:15:27.883Z,1.15
2022-10-22T21:17:56.056Z,0.82
2022-10-22T21:20:24.772Z,1.08
2022-10-22T21:22:51.861Z,1.27
2022-10-22T21:25:18.801Z,1.05
2022-10-22T21:27:45.530Z,1.63
2022-10-22T21:30:12.584Z,1.52
2022-10-22T21:32:39.443Z,1.35
2022-10-22T21:35:09.222Z,1.35
2022-10-22T21:37:36.012Z,1.63
2022-10-22T21:40:04.366Z,1.85
2022-10-22T21:42:31.191Z,1.73
2022-10-22T21:44:57.951Z,1.67
2022-10-22T21:47:24.889Z,1.15
2022-10-22T21:49:51.658Z,1.65
2022-10-22T21:52:19.840Z,2.25
2022-10-22T21:54:46.860Z,2.47
2022-10-22T21:57:13.793Z,1.40
2022-10-22T21:59:40.748Z,1.30
2022-10-22T22:02:09.480Z,1.38
2022-10-22T22:04:36.221Z,2.58
2022-10-22T22:07:03.475Z,1.98
2022-10-22T22:09:31.933Z,1.40
2022-10-22T22:11:58.589Z,1.23
2022-10-22T22:14:25.370Z,1.38
2022-10-22T22:16:52.441Z,1.05
2022-10-22T22:19:19.112Z,1.35
2022-10-22T22:21:45.916Z,1.02
2022-10-22T22:24:13.137Z,0.73
2022-10-22T22:26:41.398Z,0.85
2022-10-22T22:29:08.409Z,0.82
2022-10-22T22:31:37.267Z,0.70
2022-10-22T22:34:05.715Z,0.80
2022-10-22T22:36:34.052Z,0.98
2022-10-22T22:39:00.694Z,0.95
2022-10-22T22:41:27.381Z,1.02
2022-10-22T22:46:27.182Z,0.75
2022-10-22T22:48:54.519Z,1.05
2022-10-22T22:51:21.550Z,0.90
2022-10-22T22:53:48.271Z,0.85
2022-10-22T22:56:17.186Z,1.40
2022-10-22T22:58:44.486Z,0.95
2022-10-22T23:01:15.897Z,0.93
2022-10-22T23:03:44.234Z,0.82
2022-10-22T23:06:11.612Z,1.00
2022-10-22T23:08:39.575Z,0.98
2022-10-22T23:11:08.348Z,0.57
2022-10-22T23:13:36.127Z,0.70
2022-10-22T23:16:05.877Z,0.75
2022-10-22T23:18:35.310Z,0.93
2022-10-22T23:21:05.533Z,0.75
2022-10-22T23:23:33.434Z,0.82
2022-10-22T23:26:00.248Z,0.70
2022-10-22T23:28:27.186Z,0.77
2022-10-22T23:30:53.867Z,0.57
2022-10-22T23:33:20.569Z,0.52
2022-10-22T23:35:48.604Z,0.52
2022-10-22T23:38:15.318Z,0.75
2022-10-22T23:40:42.100Z,0.73
2022-10-22T23:43:08.733Z,0.63
2022-10-22T23:45:35.505Z,0.63
2022-10-22T23:48:02.416Z,0.93
2022-10-22T23:50:29.122Z,0.63
2022-10-22T23:52:57.150Z,0.52
2022-10-22T23:55:24.001Z,0.50
2022-10-22T23:57:50.728Z,0.63
